Terminal Aerodrome Forecast
Issued by NWS

Home | Current Version | Previous Version | Graphics & Text | Print | Product List | Glossary Off
Versions: 1 2 3 4 5 6 7 8 9 10 11 12 13

325
FTUS43 KOAX 060529
TAFCDR
TAF
KCDR 060529Z 0606/0706 25008KT P6SM SCT250
     FM061700 28012KT P6SM BKN200=

USA.gov is the U.S. government's official web portal to all federal, state and local government web resources and services.